Airfield :
LOGIN :

Register | Disclaimer

   EN    FR    IT 

 










Legend :    VFR   Marginal VFR   IFR   Intensive IFR   Very Intensive IFR
Visi :
Ceiling :
>= 8 km
>= 3000ft
5 to 8 km
1000 to 3000 ft
1500m to 5 km
500 to 1000 ft
800 to 1500m
200 to 500 ft
< 800m
< 200 ft
Symbols :   Thunderstorms  Fog  Heavy snow  Heavy precipitations  Wind > 20 kt
SIGMETs :     Misc.  Thunderstorms  Icing  Turbulence  Mountain Waves  Volcanic Ashes






- Airport Elevation : 138 ft
- IATA code : RLG


ETNL - Rostock Laage

CURRENT METAR :
  • 291920Z 22010KT 9000 BKN010 03/01 Q1013 GRN

EXPIRED METARs :
  • 291820Z 23014KT 9999 BKN010 03/01 Q1014 GRN
  • 291720Z 23010KT 9999 BKN010 03/02 Q1015 GRN
  • 291647Z 23011KT 9999 BKN009 03/02 Q1015 GRN
  • 291620Z 24010KT 7000 -RA BKN009 03/02 Q1016 GRN

TAF TAF ETNL
Valid from the 29 at 18:00 until the 30 at 06:00 UTC


291719Z 2918/3006 23015G25KT 8000 -RA BKN010
TEMPO 2918/2922 23012G22KT 2000 RADZ OVC004
TEMPO 2922/3006 23018G35KT 2000 RADZ OVC004
BECMG 3004/3006 26015G25KT 9999 NSW SCT015 BY ETGL



MET'MAP, your aeronautical weather chart ! - Copyright ORBIFLY December 2007 - Disclaimer

ORBIFLY MET'MAP TEAM :

Programming & Development : Alexandra Zaïnal
Original concept : Baudouin d'Aumeries
Technical & hardware support : Manuel Goepfert
Assistance : Marc-Olivier Méhu




SOURCES & CREDITS :

   NOAA